createdAt,value
2017-08-08T00:00:45.969Z,16.76
2017-08-08T00:01:52.060Z,16.64
2017-08-08T00:02:58.097Z,16.76
2017-08-08T00:04:04.133Z,16.80
2017-08-08T00:05:10.161Z,16.70
2017-08-08T00:06:16.201Z,16.63
2017-08-08T00:07:22.257Z,16.64
2017-08-08T00:08:28.309Z,16.72
2017-08-08T00:09:34.353Z,16.71
2017-08-08T00:10:40.477Z,16.56
2017-08-08T00:11:46.557Z,16.47
2017-08-08T00:12:52.665Z,16.47
2017-08-08T00:13:58.697Z,16.49
2017-08-08T00:15:04.754Z,16.50
2017-08-08T00:16:10.860Z,16.51
2017-08-08T00:17:16.923Z,16.54
2017-08-08T00:18:26.006Z,16.60
2017-08-08T00:19:32.033Z,16.66
2017-08-08T00:20:38.066Z,16.64
2017-08-08T00:21:44.088Z,16.63
2017-08-08T00:22:50.120Z,16.58
2017-08-08T00:23:56.184Z,16.44
2017-08-08T00:25:02.204Z,16.45
2017-08-08T00:26:08.276Z,16.44
2017-08-08T00:27:14.312Z,16.45
2017-08-08T00:28:20.378Z,16.39
2017-08-08T00:29:26.428Z,16.38
2017-08-08T00:30:34.404Z,16.29
2017-08-08T00:31:40.438Z,16.29
2017-08-08T00:32:47.572Z,16.33
2017-08-08T00:33:53.667Z,16.40
2017-08-08T00:34:59.717Z,16.28
2017-08-08T00:36:05.781Z,16.21
2017-08-08T00:37:11.811Z,16.20
2017-08-08T00:38:17.865Z,16.14
2017-08-08T00:39:23.882Z,16.13
2017-08-08T00:40:29.973Z,16.16
2017-08-08T00:41:36.024Z,16.26
2017-08-08T00:42:42.074Z,16.29
2017-08-08T00:43:48.118Z,16.23
2017-08-08T00:44:54.151Z,16.14
2017-08-08T00:46:00.247Z,16.06
2017-08-08T00:47:06.306Z,16.06
2017-08-08T00:48:12.346Z,16.24
2017-08-08T00:49:18.402Z,16.19
2017-08-08T00:50:24.431Z,16.26
2017-08-08T00:51:30.500Z,16.19
2017-08-08T00:52:36.544Z,16.19
2017-08-08T00:53:42.557Z,16.25
2017-08-08T00:54:48.627Z,16.24
2017-08-08T00:55:54.656Z,16.35
2017-08-08T00:57:00.746Z,16.32
2017-08-08T00:58:06.800Z,16.29
2017-08-08T00:59:12.844Z,16.30
2017-08-08T01:00:18.893Z,16.33
2017-08-08T01:01:24.741Z,16.39
2017-08-08T01:02:30.821Z,16.27
2017-08-08T01:03:36.870Z,16.22
2017-08-08T01:04:42.705Z,16.16
2017-08-08T01:05:48.736Z,16.03
2017-08-08T01:06:54.768Z,16.13
2017-08-08T01:08:00.873Z,16.19
2017-08-08T01:09:06.884Z,16.12
2017-08-08T01:10:13.825Z,16.12
2017-08-08T01:11:19.881Z,16.00
2017-08-08T01:12:25.934Z,15.91
2017-08-08T01:13:32.043Z,15.94
2017-08-08T01:14:38.071Z,15.85
2017-08-08T01:15:44.089Z,15.90
2017-08-08T01:16:50.139Z,15.87
2017-08-08T01:17:56.175Z,15.98
2017-08-08T01:19:02.281Z,15.92
2017-08-08T01:20:08.331Z,15.95
2017-08-08T01:21:14.389Z,16.01
2017-08-08T01:22:20.458Z,16.00
2017-08-08T01:23:26.488Z,15.98
2017-08-08T01:24:32.561Z,15.90
2017-08-08T01:25:38.612Z,15.92
2017-08-08T01:26:44.663Z,16.04
2017-08-08T01:27:50.700Z,15.96
2017-08-08T01:28:56.749Z,15.89
2017-08-08T01:30:02.839Z,15.80
2017-08-08T01:31:08.893Z,15.73
2017-08-08T01:32:14.948Z,15.70
2017-08-08T01:33:20.971Z,15.59
2017-08-08T01:34:27.026Z,15.66
2017-08-08T01:35:33.101Z,15.67
2017-08-08T01:36:39.129Z,15.64
2017-08-08T01:37:45.158Z,15.67
2017-08-08T01:38:50.669Z,15.68
2017-08-08T01:39:56.347Z,15.77
2017-08-08T01:41:02.436Z,15.73
2017-08-08T01:42:08.492Z,15.73
2017-08-08T01:43:14.543Z,15.62
2017-08-08T01:44:20.571Z,15.71
2017-08-08T01:45:26.268Z,15.64
2017-08-08T01:46:32.350Z,15.54
2017-08-08T01:47:38.037Z,15.42
2017-08-08T01:48:44.060Z,15.49
2017-08-08T01:49:49.880Z,15.49
2017-08-08T01:50:55.893Z,15.47
2017-08-08T01:52:01.997Z,15.52
2017-08-08T01:53:08.031Z,15.48
2017-08-08T01:54:13.688Z,15.38
2017-08-08T01:55:19.390Z,15.33
2017-08-08T01:56:25.425Z,15.38
2017-08-08T01:57:31.177Z,15.39
2017-08-08T01:58:36.857Z,15.30
2017-08-08T01:59:42.888Z,15.35
2017-08-08T02:00:48.194Z,15.29
2017-08-08T02:01:53.502Z,15.33
2017-08-08T02:02:59.006Z,15.41
2017-08-08T02:04:04.105Z,15.44
2017-08-08T02:05:09.782Z,15.34
2017-08-08T02:06:15.145Z,15.27
2017-08-08T02:07:21.191Z,15.33
2017-08-08T02:08:27.271Z,15.20
2017-08-08T02:09:34.157Z,15.21
2017-08-08T02:10:39.476Z,15.24
2017-08-08T02:11:44.776Z,15.30
2017-08-08T02:12:50.481Z,15.29
2017-08-08T02:13:56.167Z,15.32
2017-08-08T02:15:02.202Z,15.36
2017-08-08T02:16:08.241Z,15.26
2017-08-08T02:17:13.754Z,15.33
2017-08-08T02:18:19.569Z,15.21
2017-08-08T02:19:25.634Z,15.28
2017-08-08T02:20:31.665Z,15.21
2017-08-08T02:21:37.716Z,15.26
2017-08-08T02:22:43.401Z,15.28
2017-08-08T02:23:49.475Z,15.29
2017-08-08T02:24:59.058Z,15.29
2017-08-08T02:26:05.432Z,15.16
2017-08-08T02:27:11.474Z,15.08
2017-08-08T02:28:17.531Z,15.11
2017-08-08T02:29:23.540Z,15.11
2017-08-08T02:30:29.597Z,15.09
2017-08-08T02:31:35.622Z,15.04
2017-08-08T02:32:41.658Z,15.07
2017-08-08T02:33:47.720Z,15.12
2017-08-08T02:34:53.770Z,15.01
2017-08-08T02:35:59.823Z,15.02
2017-08-08T02:37:05.857Z,14.99
2017-08-08T02:38:11.890Z,15.00
2017-08-08T02:39:17.916Z,14.90
2017-08-08T02:40:23.944Z,15.06
2017-08-08T02:41:30.017Z,14.96
2017-08-08T02:42:36.034Z,15.00
2017-08-08T02:43:42.054Z,14.99
2017-08-08T02:44:48.076Z,14.91
2017-08-08T02:45:54.095Z,14.96
2017-08-08T02:47:00.178Z,14.84
2017-08-08T02:48:06.200Z,14.74
2017-08-08T02:49:12.219Z,14.78
2017-08-08T02:50:18.245Z,14.76
2017-08-08T02:51:24.264Z,14.75
2017-08-08T02:52:30.341Z,14.73
2017-08-08T02:53:36.395Z,14.65
2017-08-08T02:54:42.456Z,14.80
2017-08-08T02:55:48.481Z,14.69
2017-08-08T02:56:54.510Z,14.69
2017-08-08T02:58:00.611Z,14.68
2017-08-08T02:59:06.904Z,14.68
2017-08-08T03:00:12.961Z,14.61
2017-08-08T03:01:18.993Z,14.58
2017-08-08T03:02:25.018Z,14.55
2017-08-08T03:03:30.766Z,14.54
2017-08-08T03:04:36.795Z,14.56
2017-08-08T03:05:42.832Z,14.56
2017-08-08T03:06:48.837Z,14.58
2017-08-08T03:07:54.862Z,14.63
2017-08-08T03:09:00.928Z,14.55
2017-08-08T03:10:06.977Z,14.55
2017-08-08T03:11:13.000Z,14.69
2017-08-08T03:12:19.057Z,14.64
2017-08-08T03:13:25.094Z,14.70
2017-08-08T03:14:31.164Z,14.71
2017-08-08T03:15:37.195Z,14.61
2017-08-08T03:16:43.269Z,14.66
2017-08-08T03:17:49.290Z,14.65
2017-08-08T03:18:55.305Z,14.55
2017-08-08T03:20:01.375Z,14.54
2017-08-08T03:21:07.403Z,14.56
2017-08-08T03:22:13.432Z,14.44
2017-08-08T03:23:19.469Z,14.57
2017-08-08T03:24:25.541Z,14.62
2017-08-08T03:25:31.580Z,14.62
2017-08-08T03:26:37.670Z,14.55
2017-08-08T03:27:43.744Z,14.55
2017-08-08T03:28:50.605Z,14.61
2017-08-08T03:29:56.675Z,14.57
2017-08-08T03:31:02.739Z,14.54
2017-08-08T03:32:08.855Z,14.54
2017-08-08T03:33:14.874Z,14.56
2017-08-08T03:34:20.900Z,14.63
2017-08-08T03:35:26.945Z,14.61
2017-08-08T03:36:33.022Z,14.41
2017-08-08T03:37:39.068Z,14.37
2017-08-08T03:38:45.081Z,14.46
2017-08-08T03:39:52.012Z,14.49
2017-08-08T03:40:58.514Z,14.48
2017-08-08T03:42:04.586Z,14.41
2017-08-08T03:43:10.592Z,14.47
2017-08-08T03:44:16.629Z,14.35
2017-08-08T03:45:22.640Z,14.28
2017-08-08T03:46:28.668Z,14.39
2017-08-08T03:47:34.725Z,14.44
2017-08-08T03:48:40.738Z,14.47
2017-08-08T03:49:46.771Z,14.51
2017-08-08T03:50:52.878Z,14.41
2017-08-08T03:51:58.946Z,14.53
2017-08-08T03:53:05.013Z,14.44
2017-08-08T03:54:11.036Z,14.51
2017-08-08T03:55:19.022Z,14.40
2017-08-08T03:56:28.157Z,14.47
2017-08-08T03:57:36.235Z,14.54
2017-08-08T03:58:43.753Z,14.52
2017-08-08T03:59:50.452Z,14.45
2017-08-08T04:00:57.612Z,14.46
2017-08-08T04:02:04.692Z,14.59
2017-08-08T04:03:10.842Z,14.54
2017-08-08T04:04:16.921Z,14.53
2017-08-08T04:05:22.954Z,14.61
2017-08-08T04:06:28.989Z,14.54
2017-08-08T04:07:35.089Z,14.59
2017-08-08T04:08:41.380Z,14.54
2017-08-08T04:09:47.849Z,14.56
2017-08-08T04:10:55.037Z,14.58
2017-08-08T04:12:01.062Z,14.49
2017-08-08T04:13:07.101Z,14.61
2017-08-08T04:14:13.146Z,14.56
2017-08-08T04:15:19.281Z,14.48
2017-08-08T04:16:25.306Z,14.48
2017-08-08T04:17:31.390Z,14.55
2017-08-08T04:18:37.417Z,14.59
2017-08-08T04:19:43.444Z,14.57
2017-08-08T04:20:49.568Z,14.70
2017-08-08T04:21:57.385Z,14.65
2017-08-08T04:23:04.664Z,14.68
2017-08-08T04:24:10.699Z,14.72
2017-08-08T04:25:16.751Z,14.80
2017-08-08T04:26:22.810Z,14.91
2017-08-08T04:27:28.837Z,14.87
2017-08-08T04:28:34.867Z,14.85
2017-08-08T04:29:40.873Z,14.81
2017-08-08T04:30:46.894Z,14.79
2017-08-08T04:31:53.064Z,14.91
2017-08-08T04:32:59.096Z,14.90
2017-08-08T04:34:05.278Z,14.82
2017-08-08T04:35:11.294Z,14.99
2017-08-08T04:36:17.324Z,14.99
2017-08-08T04:37:23.377Z,15.03
2017-08-08T04:38:29.400Z,15.06
2017-08-08T04:39:35.450Z,15.09
2017-08-08T04:40:41.465Z,15.15
2017-08-08T04:41:47.514Z,15.26
2017-08-08T04:42:53.605Z,15.24
2017-08-08T04:43:59.632Z,15.30
2017-08-08T04:45:05.642Z,15.32
2017-08-08T04:46:11.692Z,15.41
2017-08-08T04:47:17.698Z,15.45
2017-08-08T04:48:23.741Z,15.54
2017-08-08T04:49:29.752Z,15.64
2017-08-08T04:50:35.800Z,15.63
2017-08-08T04:51:41.813Z,15.61
2017-08-08T04:52:47.845Z,15.57
2017-08-08T04:53:53.907Z,15.63
2017-08-08T04:54:59.924Z,15.69
2017-08-08T04:56:05.979Z,15.83
2017-08-08T04:57:12.029Z,15.94
2017-08-08T04:58:18.040Z,15.92
2017-08-08T04:59:24.076Z,15.99
2017-08-08T05:00:30.081Z,16.07
2017-08-08T05:01:36.132Z,16.06
2017-08-08T05:02:43.843Z,16.08
2017-08-08T05:03:52.280Z,16.16
2017-08-08T05:05:00.766Z,16.22
2017-08-08T05:06:06.463Z,16.18
2017-08-08T05:07:14.853Z,16.28
2017-08-08T05:08:22.019Z,16.40
2017-08-08T05:09:29.136Z,16.40
2017-08-08T05:10:35.193Z,16.51
2017-08-08T05:11:41.198Z,16.59
2017-08-08T05:12:47.242Z,16.53
2017-08-08T05:13:53.253Z,16.56
2017-08-08T05:14:59.251Z,16.55
2017-08-08T05:16:06.070Z,16.65
2017-08-08T05:17:12.183Z,16.65
2017-08-08T05:18:18.230Z,16.64
2017-08-08T05:19:24.253Z,16.70
2017-08-08T05:20:30.315Z,16.84
2017-08-08T05:21:36.371Z,16.85
2017-08-08T05:22:42.415Z,16.78
2017-08-08T05:23:48.442Z,16.83
2017-08-08T05:24:54.467Z,16.94
2017-08-08T05:26:00.486Z,16.94
2017-08-08T05:27:06.554Z,16.94
2017-08-08T05:28:12.589Z,16.93
2017-08-08T05:29:18.708Z,17.09
2017-08-08T05:30:24.725Z,17.03
2017-08-08T05:31:30.747Z,16.99
2017-08-08T05:32:36.804Z,17.03
2017-08-08T05:33:42.817Z,17.04
2017-08-08T05:34:48.856Z,17.03
2017-08-08T05:35:54.874Z,17.04
2017-08-08T05:37:00.893Z,17.11
2017-08-08T05:38:07.069Z,17.20
2017-08-08T05:39:13.091Z,17.09
2017-08-08T05:40:19.133Z,17.14
2017-08-08T05:41:25.141Z,17.13
2017-08-08T05:42:31.189Z,17.13
2017-08-08T05:43:37.252Z,17.09
2017-08-08T05:44:43.286Z,17.18
2017-08-08T05:45:55.373Z,17.21
2017-08-08T05:47:01.419Z,17.27
2017-08-08T05:48:07.532Z,17.33
2017-08-08T05:49:13.601Z,17.43
2017-08-08T05:50:19.645Z,17.47
2017-08-08T05:51:25.649Z,17.55
2017-08-08T05:52:31.679Z,17.52
2017-08-08T05:53:37.693Z,17.49
2017-08-08T05:54:43.742Z,17.57
2017-08-08T05:55:49.777Z,17.58
2017-08-08T05:56:55.794Z,17.67
2017-08-08T05:58:02.832Z,17.53
2017-08-08T05:59:10.168Z,17.55
2017-08-08T06:00:17.797Z,17.69
2017-08-08T06:01:24.171Z,17.83
2017-08-08T06:02:30.204Z,17.92
2017-08-08T06:03:36.224Z,17.93
2017-08-08T06:04:42.245Z,17.87
2017-08-08T06:05:48.300Z,17.84
2017-08-08T06:06:54.310Z,18.04
2017-08-08T06:08:00.326Z,18.02
2017-08-08T06:09:05.980Z,18.15
2017-08-08T06:10:12.028Z,18.15
2017-08-08T06:11:18.090Z,18.16
2017-08-08T06:12:24.117Z,18.10
2017-08-08T06:13:30.147Z,18.12
2017-08-08T06:14:36.184Z,18.16
2017-08-08T06:15:42.219Z,18.22
2017-08-08T06:16:48.307Z,18.34
2017-08-08T06:17:54.404Z,18.47
2017-08-08T06:19:00.416Z,18.61
2017-08-08T06:20:06.438Z,18.65
2017-08-08T06:21:12.456Z,18.59
2017-08-08T06:22:18.517Z,18.60
2017-08-08T06:23:24.531Z,18.62
2017-08-08T06:24:30.549Z,18.59
2017-08-08T06:25:36.570Z,18.65
2017-08-08T06:26:42.597Z,18.75
2017-08-08T06:27:48.659Z,18.72
2017-08-08T06:28:54.676Z,18.71
2017-08-08T06:30:00.718Z,18.79
2017-08-08T06:31:06.776Z,18.79
2017-08-08T06:32:12.793Z,18.91
2017-08-08T06:33:18.838Z,19.00
2017-08-08T06:34:24.866Z,19.02
2017-08-08T06:35:30.886Z,19.09
2017-08-08T06:36:36.908Z,19.08
2017-08-08T06:37:42.994Z,19.10
2017-08-08T06:38:49.041Z,19.24
2017-08-08T06:39:55.057Z,19.33
2017-08-08T06:41:01.133Z,19.36
2017-08-08T06:42:07.132Z,19.43
2017-08-08T06:43:13.167Z,19.43
2017-08-08T06:44:19.279Z,19.44
2017-08-08T06:45:25.302Z,19.47
2017-08-08T06:46:31.296Z,19.55
2017-08-08T06:47:37.317Z,19.61
2017-08-08T06:48:43.163Z,19.64
2017-08-08T06:49:49.841Z,19.66
2017-08-08T06:50:57.439Z,19.70
2017-08-08T06:52:04.050Z,19.76
2017-08-08T06:53:10.096Z,19.89
2017-08-08T06:54:16.134Z,19.94
2017-08-08T06:55:22.941Z,19.98
2017-08-08T06:56:28.969Z,20.15
2017-08-08T06:57:35.043Z,20.30
2017-08-08T06:58:41.049Z,20.33
2017-08-08T06:59:47.085Z,20.29
2017-08-08T07:00:53.156Z,20.23
2017-08-08T07:01:59.229Z,20.33
2017-08-08T07:03:05.273Z,20.31
2017-08-08T07:04:11.332Z,20.31
2017-08-08T07:05:17.385Z,20.36
2017-08-08T07:06:23.483Z,20.48
2017-08-08T07:07:29.545Z,20.47
2017-08-08T07:08:35.438Z,20.47
2017-08-08T07:09:41.533Z,20.47
2017-08-08T07:10:47.600Z,20.55
2017-08-08T07:11:53.682Z,20.70
2017-08-08T07:12:59.736Z,20.90
2017-08-08T07:14:05.785Z,21.10
2017-08-08T07:15:11.860Z,21.12
2017-08-08T07:16:17.899Z,21.29
2017-08-08T07:17:24.005Z,21.42
2017-08-08T07:18:30.084Z,21.38
2017-08-08T07:19:36.136Z,21.26
2017-08-08T07:20:42.251Z,21.29
2017-08-08T07:21:48.350Z,21.34
2017-08-08T07:22:54.267Z,21.46
2017-08-08T07:24:00.373Z,21.37
2017-08-08T07:25:06.446Z,21.25
2017-08-08T07:26:12.509Z,21.30
2017-08-08T07:27:18.581Z,21.43
2017-08-08T07:28:24.719Z,21.52
2017-08-08T07:29:30.413Z,21.70
2017-08-08T07:30:36.502Z,21.82
2017-08-08T07:31:42.581Z,21.97
2017-08-08T07:32:48.679Z,21.92
2017-08-08T07:33:54.766Z,21.85
2017-08-08T07:35:00.851Z,21.61
2017-08-08T07:36:06.935Z,21.63
2017-08-08T07:37:12.965Z,21.60
2017-08-08T07:38:19.033Z,21.65
2017-08-08T07:39:25.118Z,21.76
2017-08-08T07:40:31.242Z,21.80
2017-08-08T07:41:37.321Z,21.87
2017-08-08T07:42:43.393Z,22.06
2017-08-08T07:43:49.423Z,22.07
2017-08-08T07:44:55.523Z,22.05
2017-08-08T07:46:01.567Z,22.24
2017-08-08T07:47:07.752Z,22.38
2017-08-08T07:48:13.810Z,22.53
2017-08-08T07:49:19.901Z,22.46
2017-08-08T07:50:26.003Z,22.58
2017-08-08T07:51:32.060Z,22.70
2017-08-08T07:52:38.126Z,22.65
2017-08-08T07:53:44.190Z,22.69
2017-08-08T07:54:50.245Z,22.68
2017-08-08T07:55:56.343Z,22.71
2017-08-08T07:57:02.421Z,22.47
2017-08-08T07:58:08.471Z,22.24
2017-08-08T07:59:14.539Z,22.25
2017-08-08T08:00:20.567Z,22.34
2017-08-08T08:01:26.679Z,22.53
2017-08-08T08:02:32.716Z,22.74
2017-08-08T08:03:38.770Z,22.62
2017-08-08T08:04:44.813Z,22.60
2017-08-08T08:05:50.886Z,22.58
2017-08-08T08:06:57.004Z,22.61
2017-08-08T08:08:03.036Z,22.65
2017-08-08T08:09:09.060Z,22.65
2017-08-08T08:10:15.134Z,22.61
2017-08-08T08:11:21.228Z,22.55
2017-08-08T08:12:27.321Z,22.47
2017-08-08T08:13:33.384Z,22.53
2017-08-08T08:14:39.461Z,22.59
2017-08-08T08:15:45.546Z,22.59
2017-08-08T08:16:51.623Z,22.73
2017-08-08T08:17:57.698Z,22.84
2017-08-08T08:19:03.864Z,22.96
2017-08-08T08:20:09.938Z,23.03
2017-08-08T08:21:16.054Z,22.95
2017-08-08T08:22:22.086Z,23.09
2017-08-08T08:23:28.189Z,23.15
2017-08-08T08:24:34.254Z,23.03
2017-08-08T08:25:39.969Z,23.07
2017-08-08T08:26:46.019Z,23.10
2017-08-08T08:27:52.065Z,23.00
2017-08-08T08:28:58.244Z,23.00
2017-08-08T08:30:04.321Z,23.01
2017-08-08T08:31:10.371Z,23.07
2017-08-08T08:32:16.456Z,23.22
2017-08-08T08:33:22.559Z,23.38
2017-08-08T08:34:28.681Z,23.42
2017-08-08T08:35:34.741Z,23.62
2017-08-08T08:36:40.811Z,23.67
2017-08-08T08:37:46.873Z,23.60
2017-08-08T08:38:52.979Z,23.58
2017-08-08T08:39:59.184Z,23.16
2017-08-08T08:41:05.255Z,23.17
2017-08-08T08:42:11.349Z,23.13
2017-08-08T08:43:17.418Z,23.10
2017-08-08T08:44:23.468Z,23.19
2017-08-08T08:45:29.571Z,23.25
2017-08-08T08:46:35.652Z,23.36
2017-08-08T08:47:41.711Z,23.22
2017-08-08T08:48:47.760Z,22.95
2017-08-08T08:49:53.837Z,23.00
2017-08-08T08:51:00.081Z,23.05
2017-08-08T08:52:06.140Z,23.06
2017-08-08T08:53:12.192Z,23.10
2017-08-08T08:54:18.247Z,23.12
2017-08-08T08:55:24.309Z,23.16
2017-08-08T08:56:30.395Z,23.25
2017-08-08T08:57:36.459Z,23.28
2017-08-08T08:58:42.530Z,23.31
2017-08-08T08:59:48.638Z,23.23
2017-08-08T09:00:54.729Z,23.29
2017-08-08T09:02:00.830Z,23.36
2017-08-08T09:03:06.893Z,23.35
2017-08-08T09:04:13.004Z,23.42
2017-08-08T09:05:19.112Z,23.50
2017-08-08T09:06:25.199Z,23.40
2017-08-08T09:07:31.294Z,23.35
2017-08-08T09:08:37.342Z,23.59
2017-08-08T09:09:43.389Z,23.54
2017-08-08T09:10:49.438Z,23.54
2017-08-08T09:11:55.521Z,23.53
2017-08-08T09:13:01.634Z,23.43
2017-08-08T09:14:07.804Z,23.57
2017-08-08T09:15:13.887Z,23.71
2017-08-08T09:16:19.925Z,23.60
2017-08-08T09:17:26.008Z,23.73
2017-08-08T09:18:32.086Z,23.76
2017-08-08T09:19:38.163Z,23.68
2017-08-08T09:20:44.250Z,23.62
2017-08-08T09:21:50.317Z,23.72
2017-08-08T09:22:56.401Z,23.78
2017-08-08T09:24:02.511Z,23.75
2017-08-08T09:25:09.361Z,23.85
2017-08-08T09:26:15.412Z,23.91
2017-08-08T09:27:21.502Z,24.20
2017-08-08T09:28:27.614Z,23.93
2017-08-08T09:29:33.737Z,23.98
2017-08-08T09:30:39.821Z,24.06
2017-08-08T09:31:45.868Z,24.25
2017-08-08T09:32:51.933Z,24.29
2017-08-08T09:33:57.975Z,24.10
2017-08-08T09:35:04.093Z,24.13
2017-08-08T09:36:10.181Z,24.27
2017-08-08T09:37:16.261Z,24.27
2017-08-08T09:38:22.393Z,24.30
2017-08-08T09:39:28.507Z,24.10
2017-08-08T09:40:34.586Z,24.16
2017-08-08T09:41:40.623Z,24.33
2017-08-08T09:42:46.674Z,24.43
2017-08-08T09:43:52.733Z,24.57
2017-08-08T09:44:58.867Z,24.52
2017-08-08T09:46:04.953Z,24.42
2017-08-08T09:47:11.028Z,24.39
2017-08-08T09:48:17.098Z,24.48
2017-08-08T09:49:23.170Z,24.52
2017-08-08T09:50:29.285Z,24.34
2017-08-08T09:51:35.379Z,24.24
2017-08-08T09:52:41.476Z,24.38
2017-08-08T09:53:47.523Z,24.58
2017-08-08T09:54:53.614Z,24.35
2017-08-08T09:55:59.814Z,24.42
2017-08-08T09:57:05.922Z,24.53
2017-08-08T09:58:11.824Z,24.48
2017-08-08T09:59:17.878Z,24.60
2017-08-08T10:00:23.934Z,24.73
2017-08-08T10:01:29.838Z,24.68
2017-08-08T10:02:35.992Z,24.74
2017-08-08T10:03:42.070Z,24.88
2017-08-08T10:04:48.151Z,24.79
2017-08-08T10:05:54.200Z,24.66
2017-08-08T10:07:00.370Z,24.86
2017-08-08T10:08:06.484Z,24.94
2017-08-08T10:09:12.563Z,24.57
2017-08-08T10:10:18.673Z,24.53
2017-08-08T10:11:24.756Z,24.64
2017-08-08T10:12:30.809Z,24.83
2017-08-08T10:13:36.925Z,24.75
2017-08-08T10:14:43.015Z,24.73
2017-08-08T10:15:49.107Z,24.54
2017-08-08T10:16:55.220Z,24.57
2017-08-08T10:18:01.289Z,24.69
2017-08-08T10:19:07.474Z,24.83
2017-08-08T10:20:13.545Z,24.78
2017-08-08T10:21:19.635Z,24.85
2017-08-08T10:22:25.701Z,24.89
2017-08-08T10:23:31.786Z,24.89
2017-08-08T10:24:37.913Z,24.83
2017-08-08T10:25:44.054Z,24.90
2017-08-08T10:26:50.167Z,24.88
2017-08-08T10:27:56.293Z,24.64
2017-08-08T10:29:02.383Z,24.85
2017-08-08T10:30:08.512Z,25.14
2017-08-08T10:31:14.626Z,25.23
2017-08-08T10:32:20.717Z,25.43
2017-08-08T10:33:26.836Z,25.51
2017-08-08T10:34:32.983Z,25.37
2017-08-08T10:35:39.119Z,25.40
2017-08-08T10:36:45.192Z,25.64
2017-08-08T10:37:51.385Z,25.41
2017-08-08T10:38:57.568Z,25.52
2017-08-08T10:40:03.326Z,25.65
2017-08-08T10:41:09.531Z,25.47
2017-08-08T10:42:15.715Z,25.50
2017-08-08T10:43:21.917Z,25.84
2017-08-08T10:44:27.998Z,26.04
2017-08-08T10:45:34.135Z,25.75
2017-08-08T10:46:40.311Z,26.05
2017-08-08T10:47:46.462Z,26.33
2017-08-08T10:48:52.557Z,26.35
2017-08-08T10:49:58.692Z,26.19
2017-08-08T10:51:04.813Z,26.39
2017-08-08T10:52:10.965Z,26.25
2017-08-08T10:53:17.042Z,25.83
2017-08-08T10:54:23.206Z,26.06
2017-08-08T10:55:29.277Z,25.74
2017-08-08T10:56:35.353Z,25.96
2017-08-08T10:57:41.500Z,25.96
2017-08-08T10:58:47.563Z,25.92
2017-08-08T10:59:53.676Z,25.80
2017-08-08T11:00:59.830Z,25.71
2017-08-08T11:02:05.881Z,25.90
2017-08-08T11:03:12.017Z,25.91
2017-08-08T11:04:18.058Z,26.01
2017-08-08T11:05:24.138Z,26.09
2017-08-08T11:06:30.185Z,26.04
2017-08-08T11:07:36.267Z,26.02
2017-08-08T11:08:42.395Z,26.22
2017-08-08T11:09:48.496Z,26.51
2017-08-08T11:10:54.604Z,26.44
2017-08-08T11:12:00.678Z,26.31
2017-08-08T11:13:06.758Z,26.56
2017-08-08T11:14:12.907Z,26.76
2017-08-08T11:15:19.157Z,26.94
2017-08-08T11:16:25.261Z,27.01
2017-08-08T11:17:31.389Z,26.86
2017-08-08T11:18:37.479Z,26.59
2017-08-08T11:19:47.493Z,26.68
2017-08-08T11:20:53.573Z,26.39
2017-08-08T11:21:59.774Z,26.36
2017-08-08T11:23:05.972Z,26.56
2017-08-08T11:24:12.071Z,26.75
2017-08-08T11:27:00.509Z,26.70
2017-08-08T11:28:06.544Z,26.72
2017-08-08T11:29:12.583Z,26.81
2017-08-08T11:30:31.415Z,27.05
2017-08-08T11:31:37.500Z,26.68
2017-08-08T11:32:43.567Z,26.71
2017-08-08T11:33:49.731Z,26.48
2017-08-08T11:34:55.750Z,26.59
2017-08-08T11:36:01.949Z,26.72
2017-08-08T11:37:08.051Z,26.84
2017-08-08T11:38:14.111Z,26.73
2017-08-08T11:39:20.152Z,26.82
2017-08-08T11:40:26.209Z,26.93
2017-08-08T11:41:32.293Z,26.96
2017-08-08T11:42:38.347Z,27.26
2017-08-08T11:43:44.415Z,27.39
2017-08-08T11:44:50.465Z,27.12
2017-08-08T11:45:56.503Z,27.18
2017-08-08T11:47:02.577Z,27.17
2017-08-08T11:48:08.613Z,27.27
2017-08-08T11:49:14.641Z,27.08
2017-08-08T11:50:20.390Z,27.22
2017-08-08T11:51:26.425Z,27.45
2017-08-08T11:52:32.508Z,27.61
2017-08-08T11:53:38.544Z,27.67
2017-08-08T11:54:44.313Z,27.64
2017-08-08T11:55:50.371Z,27.58
2017-08-08T11:58:39.006Z,27.41
2017-08-08T11:59:44.781Z,27.61
2017-08-08T12:00:50.838Z,27.80
2017-08-08T12:01:56.560Z,27.76
2017-08-08T12:03:02.601Z,27.89
2017-08-08T12:04:08.381Z,28.11
2017-08-08T12:05:14.131Z,28.04
2017-08-08T12:06:19.901Z,28.11
2017-08-08T12:07:25.641Z,28.04
2017-08-08T12:08:31.689Z,27.91
2017-08-08T12:09:37.731Z,28.00
2017-08-08T12:10:43.481Z,27.89
2017-08-08T12:11:49.583Z,27.76
2017-08-08T12:12:55.338Z,27.75
2017-08-08T12:14:01.398Z,27.64
2017-08-08T12:15:11.395Z,27.83
2017-08-08T12:16:17.452Z,27.84
2017-08-08T12:17:23.206Z,27.98
2017-08-08T12:18:28.621Z,27.68
2017-08-08T12:19:34.399Z,27.55
2017-08-08T12:20:40.206Z,27.41
2017-08-08T12:21:45.970Z,27.58
2017-08-08T12:22:51.719Z,27.56
2017-08-08T12:23:57.469Z,27.76
2017-08-08T12:25:03.480Z,27.94
2017-08-08T12:26:09.329Z,27.95
2017-08-08T12:27:15.364Z,27.79
2017-08-08T12:28:21.412Z,27.79
2017-08-08T12:29:27.471Z,27.74
2017-08-08T12:30:33.249Z,27.74
2017-08-08T12:31:39.333Z,27.64
2017-08-08T12:32:45.729Z,27.33
2017-08-08T12:33:51.791Z,27.39
2017-08-08T12:34:57.566Z,27.58
2017-08-08T12:36:02.945Z,27.71
2017-08-08T12:37:08.806Z,27.68
2017-08-08T12:38:14.565Z,27.89
2017-08-08T12:39:20.315Z,27.92
2017-08-08T12:40:26.112Z,27.79
2017-08-08T12:41:31.849Z,27.99
2017-08-08T12:42:37.662Z,27.68
2017-08-08T12:43:44.504Z,27.78
2017-08-08T12:44:50.279Z,27.92
2017-08-08T12:45:56.020Z,27.66
2017-08-08T12:47:01.796Z,27.56
2017-08-08T12:48:07.645Z,27.49
2017-08-08T12:49:13.710Z,27.51
2017-08-08T12:50:19.790Z,27.59
2017-08-08T12:51:25.831Z,27.63
2017-08-08T12:52:31.883Z,27.63
2017-08-08T12:55:19.985Z,27.97
2017-08-08T12:56:26.046Z,28.09
2017-08-08T12:57:31.812Z,28.10
2017-08-08T12:58:37.568Z,27.90
2017-08-08T12:59:43.642Z,27.94
2017-08-08T13:00:49.401Z,27.91
2017-08-08T13:01:55.149Z,28.06
2017-08-08T13:03:01.283Z,28.21
2017-08-08T13:04:07.368Z,28.15
2017-08-08T13:05:13.156Z,28.09
2017-08-08T13:06:18.929Z,28.11
2017-08-08T13:07:24.693Z,28.13
2017-08-08T13:08:30.436Z,27.98
2017-08-08T13:09:35.880Z,28.12
2017-08-08T13:10:41.670Z,28.17
2017-08-08T13:11:47.425Z,28.36
2017-08-08T13:12:53.164Z,28.47
2017-08-08T13:13:58.924Z,28.37
2017-08-08T13:15:04.657Z,28.40
2017-08-08T13:16:10.475Z,28.38
2017-08-08T13:17:16.259Z,27.97
2017-08-08T13:18:22.026Z,28.13
2017-08-08T13:19:27.780Z,27.90
2017-08-08T13:20:33.581Z,28.15
2017-08-08T13:21:39.372Z,28.43
2017-08-08T13:22:45.131Z,28.58
2017-08-08T13:23:50.882Z,28.55
2017-08-08T13:24:56.627Z,28.51
2017-08-08T13:26:02.665Z,28.72
2017-08-08T13:27:08.459Z,28.83
2017-08-08T13:28:14.224Z,28.88
2017-08-08T13:29:19.960Z,28.63
2017-08-08T13:30:25.729Z,28.35
2017-08-08T13:31:31.486Z,28.23
2017-08-08T13:32:37.260Z,28.06
2017-08-08T13:33:43.047Z,28.13
2017-08-08T13:34:48.806Z,27.89
2017-08-08T13:35:54.571Z,27.82
2017-08-08T13:37:00.409Z,27.87
2017-08-08T13:38:06.209Z,27.89
2017-08-08T13:39:11.951Z,28.08
2017-08-08T13:40:17.716Z,28.26
2017-08-08T13:41:23.484Z,28.41
2017-08-08T13:42:29.209Z,28.49
2017-08-08T13:43:34.994Z,28.44
2017-08-08T13:44:40.733Z,28.37
2017-08-08T13:47:37.062Z,28.31
2017-08-08T13:48:46.516Z,28.16
2017-08-08T13:49:52.592Z,28.16
2017-08-08T13:51:03.611Z,28.19
2017-08-08T13:52:09.507Z,28.00
2017-08-08T13:53:15.228Z,27.95
2017-08-08T13:54:20.993Z,28.13
2017-08-08T13:55:26.704Z,27.85
2017-08-08T13:56:32.716Z,28.01
2017-08-08T13:57:38.440Z,27.80
2017-08-08T13:58:44.188Z,27.92
2017-08-08T13:59:49.960Z,28.08
2017-08-08T14:00:55.693Z,27.93
2017-08-08T14:02:01.413Z,27.87
2017-08-08T14:03:07.685Z,27.93
2017-08-08T14:04:13.415Z,27.95
2017-08-08T14:05:19.207Z,27.99
2017-08-08T14:06:24.941Z,27.95
2017-08-08T14:07:30.690Z,28.12
2017-08-08T14:08:36.439Z,27.99
2017-08-08T14:09:41.965Z,28.17
2017-08-08T14:10:47.743Z,28.16
2017-08-08T14:11:53.489Z,28.08
2017-08-08T14:12:59.220Z,28.15
2017-08-08T14:14:05.122Z,28.34
2017-08-08T14:15:10.910Z,28.34
2017-08-08T14:16:16.674Z,28.30
2017-08-08T14:17:22.423Z,28.14
2017-08-08T14:18:28.171Z,28.15